createdAt,value
2018-06-03T00:00:01.309Z,24.83
2018-06-03T00:02:31.111Z,30.20
2018-06-03T00:05:00.733Z,25.40
2018-06-03T00:07:29.793Z,25.63
2018-06-03T00:09:59.082Z,27.37
2018-06-03T00:12:28.589Z,29.57
2018-06-03T00:14:57.650Z,25.63
2018-06-03T00:17:27.497Z,27.00
2018-06-03T00:19:56.557Z,26.63
2018-06-03T00:22:31.367Z,26.13
2018-06-03T00:25:00.441Z,29.23
2018-06-03T00:27:30.025Z,24.30
2018-06-03T00:29:59.780Z,32.10
2018-06-03T00:32:29.337Z,24.03
2018-06-03T00:34:59.885Z,22.37
2018-06-03T00:37:28.934Z,31.00
2018-06-03T00:40:01.623Z,27.60
2018-06-03T00:42:30.978Z,31.50
2018-06-03T00:45:00.058Z,28.50
2018-06-03T00:47:29.482Z,29.67
2018-06-03T00:49:58.997Z,24.83
2018-06-03T00:52:28.821Z,26.37
2018-06-03T00:54:58.033Z,30.17
2018-06-03T00:57:28.376Z,30.97
2018-06-03T00:59:58.365Z,31.87
2018-06-03T01:02:27.744Z,31.90
2018-06-03T01:04:57.250Z,23.30
2018-06-03T01:07:26.330Z,23.97
2018-06-03T01:09:55.725Z,32.47
2018-06-03T01:12:24.778Z,32.63
2018-06-03T01:14:53.831Z,26.47
2018-06-03T01:17:23.214Z,27.07
2018-06-03T01:19:53.081Z,22.57
2018-06-03T01:22:22.129Z,28.97
2018-06-03T01:24:51.220Z,27.50
2018-06-03T01:27:20.315Z,23.60
2018-06-03T01:29:49.588Z,30.00
2018-06-03T01:32:18.918Z,29.30
2018-06-03T01:34:48.236Z,29.93
2018-06-03T01:37:17.285Z,32.03
2018-06-03T01:39:46.626Z,33.37
2018-06-03T01:42:15.689Z,28.83
2018-06-03T01:44:44.978Z,31.63
2018-06-03T01:47:14.208Z,30.43
2018-06-03T01:49:43.281Z,30.20
2018-06-03T01:52:14.083Z,23.20
2018-06-03T01:54:43.131Z,32.20
2018-06-03T01:57:12.189Z,30.60
2018-06-03T01:59:41.629Z,28.30
2018-06-03T02:02:10.737Z,26.40
2018-06-03T02:04:39.812Z,30.07
2018-06-03T02:07:08.923Z,33.10
2018-06-03T02:09:37.976Z,28.60
2018-06-03T02:12:07.048Z,27.97
2018-06-03T02:14:36.358Z,33.60
2018-06-03T02:17:05.878Z,32.40
2018-06-03T02:19:35.307Z,28.00
2018-06-03T02:22:04.392Z,32.37
2018-06-03T02:24:33.480Z,29.90
2018-06-03T02:27:02.908Z,30.07
2018-06-03T02:29:31.968Z,26.37
2018-06-03T02:32:01.270Z,33.33
2018-06-03T02:34:30.707Z,33.73
2018-06-03T02:37:00.021Z,29.17
2018-06-03T02:39:29.103Z,34.97
2018-06-03T02:41:58.510Z,29.70
2018-06-03T02:44:28.077Z,24.23
2018-06-03T02:46:57.155Z,32.50
2018-06-03T02:49:26.500Z,33.10
2018-06-03T02:51:55.566Z,33.70
2018-06-03T02:54:24.620Z,31.87
2018-06-03T02:56:54.318Z,33.43
2018-06-03T02:59:23.374Z,27.57
2018-06-03T03:01:52.749Z,31.47
2018-06-03T03:04:22.099Z,31.80
2018-06-03T03:06:51.168Z,29.63
2018-06-03T03:09:20.542Z,30.17
2018-06-03T03:11:50.204Z,29.80
2018-06-03T03:14:25.543Z,32.77
2018-06-03T03:16:55.565Z,28.00
2018-06-03T03:19:24.751Z,31.40
2018-06-03T03:21:53.949Z,32.77
2018-06-03T03:24:23.013Z,32.07
2018-06-03T03:26:52.125Z,34.87
2018-06-03T03:29:21.554Z,29.77
2018-06-03T03:31:50.608Z,27.30
2018-06-03T03:34:19.658Z,32.30
2018-06-03T03:36:48.741Z,29.13
2018-06-03T03:39:18.108Z,29.73
2018-06-03T03:41:47.484Z,34.50
2018-06-03T03:44:16.610Z,30.20
2018-06-03T03:46:45.906Z,33.83
2018-06-03T03:49:14.954Z,30.93
2018-06-03T03:51:44.341Z,30.13
2018-06-03T03:54:13.418Z,29.63
2018-06-03T03:56:43.114Z,30.97
2018-06-03T03:59:12.342Z,30.60
2018-06-03T04:01:41.397Z,23.60
2018-06-03T04:04:10.697Z,31.67
2018-06-03T04:06:39.818Z,27.73
2018-06-03T04:09:08.932Z,27.03
2018-06-03T04:11:38.012Z,28.30
2018-06-03T04:14:07.093Z,30.90
2018-06-03T04:16:36.285Z,29.87
2018-06-03T04:19:05.346Z,30.47
2018-06-03T04:21:34.971Z,29.33
2018-06-03T04:24:04.538Z,27.20
2018-06-03T04:26:33.594Z,29.60
2018-06-03T04:29:02.921Z,25.83
2018-06-03T04:31:32.012Z,27.60
2018-06-03T04:34:01.097Z,26.30
2018-06-03T04:36:30.687Z,28.30
2018-06-03T04:39:00.090Z,28.10
2018-06-03T04:41:29.490Z,27.30
2018-06-03T04:43:58.889Z,29.23
2018-06-03T04:46:27.956Z,33.47
2018-06-03T04:48:57.327Z,28.03
2018-06-03T04:51:26.693Z,27.67
2018-06-03T04:53:56.076Z,23.87
2018-06-03T04:56:25.153Z,23.70
2018-06-03T04:58:54.211Z,28.47
2018-06-03T05:01:23.485Z,28.80
2018-06-03T05:03:52.889Z,26.67
2018-06-03T05:06:22.298Z,29.53
2018-06-03T05:08:52.013Z,27.07
2018-06-03T05:11:21.387Z,24.17
2018-06-03T05:13:50.442Z,28.43
2018-06-03T05:16:19.759Z,26.13
2018-06-03T05:18:49.538Z,27.97
2018-06-03T05:21:18.954Z,27.17
2018-06-03T05:23:48.496Z,28.50
2018-06-03T05:26:18.103Z,26.50
2018-06-03T05:28:47.266Z,28.40
2018-06-03T05:31:16.356Z,28.77
2018-06-03T05:33:45.419Z,28.47
2018-06-03T05:36:14.752Z,27.30
2018-06-03T05:38:43.818Z,25.37
2018-06-03T05:41:14.552Z,27.57
2018-06-03T05:43:43.646Z,24.87
2018-06-03T05:46:12.700Z,25.57
2018-06-03T05:48:41.823Z,27.07
2018-06-03T05:51:11.216Z,26.00
2018-06-03T05:53:40.521Z,28.60
2018-06-03T05:56:09.637Z,24.80
2018-06-03T05:58:38.684Z,26.00
2018-06-03T06:01:08.215Z,28.07
2018-06-03T06:03:37.516Z,26.33
2018-06-03T06:06:06.606Z,28.90
2018-06-03T06:08:35.737Z,27.13
2018-06-03T06:11:04.925Z,27.23
2018-06-03T06:13:33.988Z,25.30
2018-06-03T06:16:03.179Z,25.80
2018-06-03T06:18:32.541Z,16.77
2018-06-03T06:21:01.877Z,29.37
2018-06-03T06:23:32.530Z,24.13
2018-06-03T06:26:01.761Z,18.80
2018-06-03T06:28:30.871Z,16.13
2018-06-03T06:30:59.965Z,29.80
2018-06-03T06:33:29.368Z,30.60
2018-06-03T06:35:58.426Z,28.13
2018-06-03T06:38:27.506Z,23.60
2018-06-03T06:40:56.578Z,28.40
2018-06-03T06:43:25.694Z,24.10
2018-06-03T06:45:55.033Z,31.30
2018-06-03T06:48:24.087Z,30.70
2018-06-03T06:50:53.580Z,28.50
2018-06-03T06:53:22.647Z,26.90
2018-06-03T06:55:52.074Z,27.17
2018-06-03T06:58:21.169Z,29.90
2018-06-03T07:00:50.278Z,26.50
2018-06-03T07:03:19.702Z,26.63
2018-06-03T07:05:48.769Z,21.40
2018-06-03T07:08:17.821Z,27.13
2018-06-03T07:10:47.641Z,26.10
2018-06-03T07:13:16.703Z,24.70
2018-06-03T07:15:46.073Z,27.13
2018-06-03T07:18:15.349Z,27.97
2018-06-03T07:20:44.425Z,27.30
2018-06-03T07:23:13.559Z,24.90
2018-06-03T07:25:42.890Z,20.63
2018-06-03T07:28:12.946Z,21.43
2018-06-03T07:30:42.128Z,18.60
2018-06-03T07:33:11.478Z,19.10
2018-06-03T07:35:40.850Z,20.60
2018-06-03T07:38:09.984Z,21.00
2018-06-03T07:40:39.171Z,20.77
2018-06-03T07:43:08.493Z,20.83
2018-06-03T07:45:37.642Z,22.83
2018-06-03T07:48:06.739Z,23.57
2018-06-03T07:50:36.105Z,26.97
2018-06-03T07:53:05.945Z,26.90
2018-06-03T07:55:35.057Z,27.73
2018-06-03T07:58:04.376Z,25.13
2018-06-03T08:00:33.502Z,24.73
2018-06-03T08:03:02.839Z,20.40
2018-06-03T08:05:32.192Z,20.83
2018-06-03T08:08:01.501Z,22.13
2018-06-03T08:10:30.719Z,17.40
2018-06-03T08:13:00.142Z,21.20
2018-06-03T08:15:31.563Z,17.30
2018-06-03T08:18:04.229Z,15.83
2018-06-03T08:20:33.320Z,16.03
2018-06-03T08:23:02.735Z,16.20
2018-06-03T08:25:32.787Z,19.47
2018-06-03T08:28:02.248Z,16.87
2018-06-03T08:30:32.161Z,16.17
2018-06-03T08:33:01.238Z,15.70
2018-06-03T08:35:30.448Z,17.77
2018-06-03T08:37:59.546Z,16.57
2018-06-03T08:40:28.622Z,16.70
2018-06-03T08:42:57.437Z,16.47
2018-06-03T08:45:26.449Z,15.80
2018-06-03T08:47:55.641Z,15.63
2018-06-03T08:50:24.713Z,16.90
2018-06-03T08:52:54.159Z,20.57
2018-06-03T08:55:23.275Z,17.57
2018-06-03T08:57:52.849Z,17.70
2018-06-03T09:00:21.906Z,18.03
2018-06-03T09:02:50.972Z,17.50
2018-06-03T09:05:20.055Z,21.73
2018-06-03T09:07:49.374Z,19.40
2018-06-03T09:10:18.746Z,19.67
2018-06-03T09:12:48.318Z,18.93
2018-06-03T09:15:17.431Z,20.50
2018-06-03T09:17:46.698Z,21.27
2018-06-03T09:20:15.757Z,22.13
2018-06-03T09:22:44.849Z,18.20
2018-06-03T09:25:14.441Z,22.23
2018-06-03T09:27:43.493Z,19.17
2018-06-03T09:30:12.802Z,23.20
2018-06-03T09:32:41.921Z,30.57
2018-06-03T09:35:11.023Z,24.90
2018-06-03T09:37:40.602Z,22.80
2018-06-03T09:40:09.710Z,24.17
2018-06-03T09:42:38.777Z,25.10
2018-06-03T09:45:08.398Z,20.70
2018-06-03T09:47:37.453Z,22.87
2018-06-03T09:50:06.802Z,19.40
2018-06-03T09:52:35.863Z,20.70
2018-06-03T09:55:05.326Z,18.60
2018-06-03T09:57:34.687Z,22.77
2018-06-03T10:00:03.909Z,23.03
2018-06-03T10:02:33.620Z,20.80
2018-06-03T10:05:02.982Z,21.80
2018-06-03T10:07:32.063Z,17.60
2018-06-03T10:10:01.160Z,16.30
2018-06-03T10:12:30.234Z,17.90
2018-06-03T10:15:00.816Z,15.00
2018-06-03T10:17:31.083Z,16.10
2018-06-03T10:20:00.210Z,14.40
2018-06-03T10:22:29.456Z,18.90
2018-06-03T10:24:58.538Z,20.17
2018-06-03T10:27:28.181Z,18.30
2018-06-03T10:29:57.309Z,18.73
2018-06-03T10:32:26.813Z,14.90
2018-06-03T10:34:55.905Z,22.20
2018-06-03T10:37:25.225Z,22.93
2018-06-03T10:39:54.678Z,18.97
2018-06-03T10:42:23.801Z,20.13
2018-06-03T10:44:53.562Z,15.70
2018-06-03T10:47:22.732Z,16.80
2018-06-03T10:49:52.125Z,14.53
2018-06-03T10:52:21.432Z,20.37
2018-06-03T10:54:54.451Z,22.90
2018-06-03T10:57:23.597Z,21.10
2018-06-03T10:59:52.757Z,18.70
2018-06-03T11:02:22.122Z,17.40
2018-06-03T11:04:51.246Z,15.30
2018-06-03T11:07:20.302Z,16.00
2018-06-03T11:09:49.485Z,18.23
2018-06-03T11:12:18.606Z,20.50
2018-06-03T11:14:47.663Z,16.67
2018-06-03T11:17:17.126Z,15.90
2018-06-03T11:19:46.606Z,15.60
2018-06-03T11:22:16.669Z,18.63
2018-06-03T11:24:46.346Z,16.30
2018-06-03T11:27:15.752Z,13.47
2018-06-03T11:29:45.584Z,15.57
2018-06-03T11:32:15.115Z,13.30
2018-06-03T11:34:44.353Z,13.20
2018-06-03T11:37:13.425Z,12.80
2018-06-03T11:39:42.973Z,13.33
2018-06-03T11:42:12.749Z,11.57
2018-06-03T11:44:42.082Z,16.67
2018-06-03T11:47:11.521Z,11.30
2018-06-03T11:49:40.642Z,10.60
2018-06-03T11:52:09.995Z,13.17
2018-06-03T11:54:39.190Z,11.53
2018-06-03T11:57:11.472Z,11.17
2018-06-03T11:59:47.388Z,10.93
2018-06-03T12:02:21.605Z,10.00
2018-06-03T12:04:50.938Z,12.37
2018-06-03T12:07:24.872Z,12.60
2018-06-03T12:09:55.666Z,10.83
2018-06-03T12:12:26.218Z,10.27
2018-06-03T12:14:55.662Z,10.23
2018-06-03T12:17:24.778Z,10.30
2018-06-03T12:19:53.878Z,9.20
2018-06-03T12:22:23.540Z,8.83
2018-06-03T12:24:52.625Z,7.20
2018-06-03T12:27:22.465Z,8.80
2018-06-03T12:29:52.038Z,8.53
2018-06-03T12:32:22.119Z,6.90
2018-06-03T12:34:51.872Z,7.60
2018-06-03T12:37:21.179Z,7.10
2018-06-03T12:39:50.950Z,7.23
2018-06-03T12:42:20.293Z,8.77
2018-06-03T12:44:49.944Z,7.60
2018-06-03T12:47:19.088Z,9.20
2018-06-03T12:49:48.144Z,7.00
2018-06-03T12:52:17.224Z,6.10
2018-06-03T12:54:46.337Z,6.90
2018-06-03T12:57:15.769Z,7.07
2018-06-03T12:59:44.821Z,6.37
2018-06-03T13:02:13.925Z,5.97
2018-06-03T13:04:43.143Z,6.30
2018-06-03T13:07:12.239Z,6.90
2018-06-03T13:09:41.569Z,5.40
2018-06-03T13:12:10.689Z,6.33
2018-06-03T13:14:39.921Z,5.83
2018-06-03T13:17:09.762Z,5.30
2018-06-03T13:19:39.152Z,5.60
2018-06-03T13:22:08.345Z,5.30
2018-06-03T13:24:37.745Z,5.00
2018-06-03T13:27:06.822Z,5.37
2018-06-03T13:29:35.871Z,6.00
2018-06-03T13:32:05.423Z,5.60
2018-06-03T13:34:34.484Z,5.30
2018-06-03T13:37:07.115Z,5.60
2018-06-03T13:39:36.282Z,5.20
2018-06-03T13:42:07.541Z,5.03
2018-06-03T13:44:36.872Z,4.70
2018-06-03T13:47:05.994Z,4.70
2018-06-03T13:49:35.119Z,4.60
2018-06-03T13:52:04.184Z,4.93
2018-06-03T13:54:33.510Z,5.07
2018-06-03T13:57:02.919Z,4.60
2018-06-03T13:59:32.592Z,5.10
2018-06-03T14:02:01.668Z,4.53
2018-06-03T14:04:31.344Z,5.10
2018-06-03T14:07:00.438Z,4.57
2018-06-03T14:09:29.839Z,4.20
2018-06-03T14:11:59.870Z,5.27
2018-06-03T14:14:29.130Z,5.20
2018-06-03T14:16:58.217Z,4.70
2018-06-03T14:19:27.746Z,5.00
2018-06-03T14:21:57.427Z,4.60
2018-06-03T14:24:26.537Z,4.30
2018-06-03T14:26:55.630Z,4.10
2018-06-03T14:29:24.753Z,4.40
2018-06-03T14:31:53.804Z,4.63
2018-06-03T14:34:23.285Z,5.13
2018-06-03T14:36:52.660Z,4.67
2018-06-03T14:39:22.175Z,6.20
2018-06-03T14:41:51.253Z,5.37
2018-06-03T14:44:20.642Z,5.50
2018-06-03T14:46:49.772Z,5.00
2018-06-03T14:49:19.100Z,5.60
2018-06-03T14:51:48.194Z,4.67
2018-06-03T14:54:17.228Z,5.67
2018-06-03T14:56:46.325Z,5.70
2018-06-03T14:59:15.622Z,5.60
2018-06-03T15:01:44.961Z,5.40
2018-06-03T15:04:14.081Z,5.47
2018-06-03T15:06:43.469Z,6.23
2018-06-03T15:09:12.592Z,5.20
2018-06-03T15:11:41.650Z,5.93
2018-06-03T15:14:11.219Z,5.40
2018-06-03T15:16:40.726Z,5.40
2018-06-03T15:19:10.080Z,5.50
2018-06-03T15:21:39.130Z,5.60
2018-06-03T15:24:08.466Z,6.10
2018-06-03T15:26:37.887Z,5.70
2018-06-03T15:29:07.511Z,7.33
2018-06-03T15:31:36.643Z,6.57
2018-06-03T15:34:05.681Z,6.13
2018-06-03T15:36:34.746Z,13.93
2018-06-03T15:39:06.309Z,6.83
2018-06-03T15:41:35.651Z,6.00
2018-06-03T15:44:05.072Z,6.17
2018-06-03T15:46:34.158Z,6.53
2018-06-03T15:49:03.568Z,6.53
2018-06-03T15:51:32.655Z,6.50
2018-06-03T15:54:01.745Z,7.40
2018-06-03T15:56:30.940Z,7.70
2018-06-03T15:59:00.120Z,5.93
2018-06-03T16:01:29.253Z,5.87
2018-06-03T16:03:58.489Z,6.20
2018-06-03T16:06:27.567Z,6.73
2018-06-03T16:08:56.704Z,6.53
2018-06-03T16:11:25.790Z,7.30
2018-06-03T16:13:54.953Z,6.77
2018-06-03T16:16:24.092Z,7.30
2018-06-03T16:18:53.150Z,7.97
2018-06-03T16:21:22.443Z,7.07
2018-06-03T16:23:51.521Z,6.93
2018-06-03T16:26:20.602Z,6.77
2018-06-03T16:28:49.686Z,7.43
2018-06-03T16:31:18.827Z,6.63
2018-06-03T16:33:47.929Z,7.43
2018-06-03T16:36:17.121Z,8.60
2018-06-03T16:38:46.282Z,7.97
2018-06-03T16:41:16.533Z,7.27
2018-06-03T16:43:46.082Z,9.07
2018-06-03T16:46:15.189Z,19.07
2018-06-03T16:48:44.529Z,17.17
2018-06-03T16:51:13.622Z,11.43
2018-06-03T16:53:43.057Z,11.50
2018-06-03T16:56:12.109Z,10.90
2018-06-03T16:58:41.474Z,11.33
2018-06-03T17:01:10.776Z,10.33
2018-06-03T17:03:39.887Z,9.57
2018-06-03T17:06:08.723Z,9.77
2018-06-03T17:08:37.717Z,9.13
2018-06-03T17:11:06.790Z,9.00
2018-06-03T17:13:35.883Z,9.50
2018-06-03T17:16:05.045Z,8.43
2018-06-03T17:18:34.134Z,9.40
2018-06-03T17:21:03.379Z,9.30
2018-06-03T17:23:32.528Z,9.47
2018-06-03T17:26:01.651Z,10.50
2018-06-03T17:28:30.741Z,10.43
2018-06-03T17:30:59.853Z,9.10
2018-06-03T17:33:28.934Z,9.20
2018-06-03T17:35:58.011Z,11.03
2018-06-03T17:38:27.118Z,9.77
2018-06-03T17:40:56.313Z,9.20
2018-06-03T17:43:26.085Z,9.50
2018-06-03T17:45:56.011Z,11.60
2018-06-03T17:48:27.179Z,11.50
2018-06-03T17:50:57.573Z,10.13
2018-06-03T17:53:27.789Z,12.07
2018-06-03T17:55:57.009Z,11.50
2018-06-03T17:58:26.431Z,12.17
2018-06-03T18:00:55.815Z,11.80
2018-06-03T18:03:24.945Z,11.73
2018-06-03T18:05:54.057Z,11.23
2018-06-03T18:08:23.339Z,12.23
2018-06-03T18:10:52.450Z,12.73
2018-06-03T18:13:21.882Z,12.23
2018-06-03T18:15:50.973Z,13.07
2018-06-03T18:18:20.075Z,12.97
2018-06-03T18:20:49.449Z,11.97
2018-06-03T18:23:18.846Z,13.17
2018-06-03T18:25:48.022Z,16.60
2018-06-03T18:28:17.133Z,17.00
2018-06-03T18:30:46.208Z,13.53
2018-06-03T18:33:15.475Z,13.67
2018-06-03T18:35:45.491Z,12.90
2018-06-03T18:38:14.590Z,13.80
2018-06-03T18:40:43.682Z,10.33
2018-06-03T18:43:13.093Z,11.57
2018-06-03T18:45:42.185Z,12.63
2018-06-03T18:48:11.496Z,13.27
2018-06-03T18:50:41.498Z,12.47
2018-06-03T18:53:10.643Z,14.27
2018-06-03T18:55:39.697Z,13.23
2018-06-03T18:58:08.822Z,13.07
2018-06-03T19:00:37.882Z,12.73
2018-06-03T19:03:06.971Z,13.13
2018-06-03T19:05:36.377Z,14.10
2018-06-03T19:08:05.487Z,13.40
2018-06-03T19:10:34.850Z,11.57
2018-06-03T19:13:04.024Z,16.70
2018-06-03T19:15:33.360Z,12.43
2018-06-03T19:18:02.521Z,12.20
2018-06-03T19:20:31.593Z,12.43
2018-06-03T19:23:00.716Z,12.80
2018-06-03T19:25:31.158Z,12.27
2018-06-03T19:28:00.254Z,11.97
2018-06-03T19:30:29.375Z,12.63
2018-06-03T19:32:58.583Z,13.33
2018-06-03T19:35:27.884Z,19.87
2018-06-03T19:37:57.336Z,13.60
2018-06-03T19:40:26.477Z,14.10
2018-06-03T19:42:56.257Z,12.93
2018-06-03T19:45:26.659Z,12.90
2018-06-03T19:47:55.489Z,13.50
2018-06-03T19:50:24.478Z,12.47
2018-06-03T19:52:55.000Z,13.27
2018-06-03T19:55:24.338Z,13.50
2018-06-03T19:57:53.506Z,12.33
2018-06-03T20:00:22.651Z,14.60
2018-06-03T20:02:51.805Z,16.20
2018-06-03T20:05:21.044Z,13.60
2018-06-03T20:07:51.502Z,14.13
2018-06-03T20:10:20.629Z,12.47
2018-06-03T20:12:49.861Z,13.90
2018-06-03T20:15:19.091Z,13.90
2018-06-03T20:17:52.437Z,14.27
2018-06-03T20:20:22.174Z,13.17
2018-06-03T20:22:51.334Z,11.57
2018-06-03T20:25:20.476Z,17.67
2018-06-03T20:27:49.680Z,13.23
2018-06-03T20:30:18.749Z,12.93
2018-06-03T20:32:47.860Z,13.50
2018-06-03T20:35:17.000Z,14.60
2018-06-03T20:37:46.109Z,11.07
2018-06-03T20:40:15.401Z,11.00
2018-06-03T20:42:44.656Z,16.03
2018-06-03T20:45:13.734Z,14.57
2018-06-03T20:47:42.832Z,13.40
2018-06-03T20:50:12.242Z,13.40
2018-06-03T20:52:41.352Z,11.53
2018-06-03T20:55:11.108Z,15.43
2018-06-03T20:57:40.463Z,16.30
2018-06-03T21:00:09.821Z,17.13
2018-06-03T21:02:39.046Z,14.37
2018-06-03T21:05:08.258Z,15.43
2018-06-03T21:07:37.365Z,15.93
2018-06-03T21:10:06.459Z,14.50
2018-06-03T21:12:36.215Z,13.47
2018-06-03T21:15:05.378Z,15.50
2018-06-03T21:17:34.528Z,14.20
2018-06-03T21:20:04.969Z,12.63
2018-06-03T21:22:34.149Z,14.63
2018-06-03T21:25:03.215Z,15.17
2018-06-03T21:27:32.373Z,14.47
2018-06-03T21:30:01.477Z,19.00
2018-06-03T21:32:30.646Z,15.80
2018-06-03T21:34:59.806Z,16.43
2018-06-03T21:37:28.907Z,14.60
2018-06-03T21:39:58.068Z,15.80
2018-06-03T21:42:27.858Z,16.73
2018-06-03T21:44:56.930Z,15.10
2018-06-03T21:47:26.029Z,16.00
2018-06-03T21:49:55.462Z,15.53
2018-06-03T21:52:24.522Z,13.43
2018-06-03T21:54:53.630Z,16.83
2018-06-03T21:57:23.665Z,18.07
2018-06-03T21:59:53.489Z,20.63
2018-06-03T22:02:24.051Z,19.60
2018-06-03T22:04:53.214Z,18.80
2018-06-03T22:07:22.536Z,18.10
2018-06-03T22:09:51.598Z,15.27
2018-06-03T22:12:20.702Z,17.77
2018-06-03T22:14:49.806Z,14.43
2018-06-03T22:17:18.923Z,21.30
2018-06-03T22:19:48.677Z,18.83
2018-06-03T22:22:17.768Z,18.13
2018-06-03T22:24:46.898Z,17.97
2018-06-03T22:27:16.427Z,17.10
2018-06-03T22:29:45.847Z,16.47
2018-06-03T22:32:14.941Z,17.10
2018-06-03T22:34:44.011Z,18.20
2018-06-03T22:37:13.095Z,19.00
2018-06-03T22:39:42.191Z,19.60
2018-06-03T22:42:11.936Z,19.07
2018-06-03T22:44:41.513Z,19.27
2018-06-03T22:47:10.896Z,18.53
2018-06-03T22:49:39.973Z,18.60
2018-06-03T22:52:09.050Z,19.10
2018-06-03T22:54:38.114Z,18.23
2018-06-03T22:58:14.858Z,17.90
2018-06-03T23:00:43.923Z,17.70
2018-06-03T23:03:15.564Z,16.73
2018-06-03T23:05:44.962Z,16.73
2018-06-03T23:08:14.041Z,17.40
2018-06-03T23:10:43.135Z,18.77
2018-06-03T23:13:12.473Z,12.07
2018-06-03T23:15:41.683Z,18.90
2018-06-03T23:18:11.435Z,17.70
2018-06-03T23:20:40.501Z,16.83
2018-06-03T23:23:09.602Z,17.97
2018-06-03T23:25:38.803Z,16.67
2018-06-03T23:28:11.330Z,18.33
2018-06-03T23:30:40.413Z,18.77
2018-06-03T23:33:09.501Z,17.23
2018-06-03T23:35:38.565Z,18.67
2018-06-03T23:38:07.664Z,18.73
2018-06-03T23:40:36.728Z,18.70
2018-06-03T23:43:05.833Z,16.53
2018-06-03T23:45:34.929Z,18.00
2018-06-03T23:48:04.293Z,17.80
2018-06-03T23:50:33.641Z,19.07
2018-06-03T23:53:02.745Z,17.90
2018-06-03T23:55:31.781Z,17.10
2018-06-03T23:58:00.831Z,18.53
